East Ashtabula, Ohio
Current Conditions -  °F | °C
As of 8:09 AM on Friday 24 Oct 2014 (Local Time) from KHZY Reporting Station
Haze Haze  
Wind Chill: 36°   Ceiling: Unl
Heat Index: 36°   Visibility: 4mi
Dew Point: 34°   Wind: 0mph
Humidity: 93%   Direction: NA
Pressure: 30.09"   Gusts: NA
Location:  41.8515°N, 80.79°W
Report Text: KHZY 241209Z AUTO 00000KT 4SM BR FEW003 02/01 A3009 RMK AO2 T00220011
Loading
Personal Weather Stations






























Interactive Weather Map
Tropical Storm Tracking
New forecast layout! Learn more

10-Day Weather Forecast

Advertisements
Track Severe Weather on mobile